createdAt,value
2016-10-22T00:00:54.122Z,0
2016-10-22T00:01:54.199Z,0
2016-10-22T00:02:54.232Z,0
2016-10-22T00:03:54.311Z,0
2016-10-22T00:04:54.351Z,0
2016-10-22T00:05:54.428Z,0
2016-10-22T00:06:54.475Z,0
2016-10-22T00:07:54.507Z,0
2016-10-22T00:08:54.566Z,0
2016-10-22T00:09:54.604Z,0
2016-10-22T00:10:54.680Z,0
2016-10-22T00:11:54.738Z,0
2016-10-22T00:12:54.788Z,0
2016-10-22T00:13:55.131Z,0
2016-10-22T00:14:54.898Z,0
2016-10-22T00:15:54.951Z,0
2016-10-22T00:16:55.000Z,0
2016-10-22T00:17:55.055Z,0
2016-10-22T00:18:55.097Z,0
2016-10-22T00:19:55.173Z,0
2016-10-22T00:20:55.223Z,0
2016-10-22T00:21:55.279Z,0
2016-10-22T00:22:55.336Z,0
2016-10-22T00:23:55.381Z,0
2016-10-22T00:24:55.422Z,0
2016-10-22T00:25:55.503Z,0
2016-10-22T00:26:55.555Z,0
2016-10-22T00:27:55.587Z,0
2016-10-22T00:28:55.669Z,0
2016-10-22T00:29:55.706Z,0
2016-10-22T00:30:55.749Z,0
2016-10-22T00:31:55.831Z,0
2016-10-22T00:32:55.865Z,0
2016-10-22T00:33:55.933Z,0
2016-10-22T00:34:55.982Z,0
2016-10-22T00:35:56.067Z,0
2016-10-22T00:36:56.414Z,0
2016-10-22T00:37:56.161Z,0
2016-10-22T00:38:56.211Z,0
2016-10-22T00:39:56.266Z,0
2016-10-22T00:40:56.296Z,0
2016-10-22T00:41:56.380Z,0
2016-10-22T00:42:56.419Z,0
2016-10-22T00:43:56.475Z,0
2016-10-22T00:44:56.529Z,0
2016-10-22T00:45:56.573Z,0
2016-10-22T00:46:56.638Z,0
2016-10-22T00:47:56.698Z,0
2016-10-22T00:48:56.766Z,0
2016-10-22T00:49:56.805Z,0
2016-10-22T00:50:56.862Z,0
2016-10-22T00:51:56.907Z,0
2016-10-22T00:52:56.983Z,0
2016-10-22T00:53:57.046Z,0
2016-10-22T00:54:57.104Z,0
2016-10-22T00:55:57.150Z,0
2016-10-22T00:56:57.188Z,0
2016-10-22T00:57:57.245Z,0
2016-10-22T00:58:57.284Z,0
2016-10-22T00:59:57.337Z,0
2016-10-22T01:00:57.429Z,0
2016-10-22T01:01:57.450Z,0
2016-10-22T01:02:57.519Z,0
2016-10-22T01:03:57.557Z,0
2016-10-22T01:04:57.627Z,0
2016-10-22T01:05:57.702Z,0
2016-10-22T01:06:57.744Z,0
2016-10-22T01:07:57.800Z,0
2016-10-22T01:08:57.840Z,0
2016-10-22T01:09:57.894Z,0
2016-10-22T01:10:57.948Z,0
2016-10-22T01:11:57.998Z,0
2016-10-22T01:12:58.073Z,0
2016-10-22T01:13:58.113Z,0
2016-10-22T01:14:58.173Z,0
2016-10-22T01:15:58.230Z,0
2016-10-22T01:16:58.298Z,0
2016-10-22T01:17:58.322Z,0
2016-10-22T01:18:58.722Z,0
2016-10-22T01:19:58.474Z,0
2016-10-22T01:20:58.502Z,0
2016-10-22T01:21:58.563Z,0
2016-10-22T01:22:58.612Z,0
2016-10-22T01:23:58.652Z,0
2016-10-22T01:24:58.708Z,0
2016-10-22T01:25:58.782Z,0
2016-10-22T01:26:58.855Z,0
2016-10-22T01:27:58.886Z,0
2016-10-22T01:28:58.976Z,0
2016-10-22T01:29:58.993Z,0
2016-10-22T01:30:59.032Z,0
2016-10-22T01:31:59.114Z,0
2016-10-22T01:32:59.164Z,0
2016-10-22T01:33:59.217Z,0
2016-10-22T01:34:59.285Z,0
2016-10-22T01:35:59.336Z,0
2016-10-22T01:36:59.398Z,0
2016-10-22T01:37:59.436Z,0
2016-10-22T01:38:59.483Z,0
2016-10-22T01:39:59.552Z,0
2016-10-22T01:40:59.582Z,0
2016-10-22T01:41:59.640Z,0
2016-10-22T01:42:59.699Z,0
2016-10-22T01:43:59.764Z,0
2016-10-22T01:44:59.799Z,0
2016-10-22T01:45:59.882Z,0
2016-10-22T01:46:59.906Z,0
2016-10-22T01:47:59.984Z,0
2016-10-22T01:49:00.050Z,0
2016-10-22T01:50:00.080Z,0
2016-10-22T01:51:00.152Z,0
2016-10-22T01:52:00.180Z,0
2016-10-22T01:53:00.252Z,0
2016-10-22T01:54:00.312Z,0
2016-10-22T01:55:00.352Z,0
2016-10-22T01:56:00.399Z,0
2016-10-22T01:57:00.479Z,0
2016-10-22T01:58:00.523Z,0
2016-10-22T01:59:00.622Z,0
2016-10-22T02:00:00.676Z,0
2016-10-22T02:01:00.690Z,0
2016-10-22T02:02:00.762Z,0
2016-10-22T02:03:00.832Z,0
2016-10-22T02:04:00.848Z,0
2016-10-22T02:05:00.895Z,0
2016-10-22T02:06:00.960Z,0
2016-10-22T02:07:01.015Z,0
2016-10-22T02:08:01.091Z,0
2016-10-22T02:09:01.122Z,0
2016-10-22T02:10:01.192Z,0
2016-10-22T02:11:01.290Z,0
2016-10-22T02:12:01.278Z,0
2016-10-22T02:13:01.329Z,0
2016-10-22T02:14:01.421Z,0
2016-10-22T02:15:01.468Z,0
2016-10-22T02:16:01.496Z,0
2016-10-22T02:17:01.587Z,0
2016-10-22T02:18:01.611Z,0
2016-10-22T02:19:01.682Z,0
2016-10-22T02:20:01.753Z,0
2016-10-22T02:21:01.808Z,0
2016-10-22T02:22:01.835Z,0
2016-10-22T02:23:01.888Z,0
2016-10-22T02:24:01.965Z,0
2016-10-22T02:25:02.006Z,0
2016-10-22T02:26:02.077Z,0
2016-10-22T02:27:02.117Z,0
2016-10-22T02:28:02.200Z,0
2016-10-22T02:29:02.231Z,0
2016-10-22T02:30:02.287Z,0
2016-10-22T02:31:02.344Z,0
2016-10-22T02:32:02.384Z,0
2016-10-22T02:33:02.455Z,0
2016-10-22T02:34:02.497Z,0
2016-10-22T02:35:02.576Z,0
2016-10-22T02:36:02.618Z,0
2016-10-22T02:37:02.656Z,0
2016-10-22T02:38:02.703Z,0
2016-10-22T02:39:02.779Z,0
2016-10-22T02:40:02.851Z,0
2016-10-22T02:41:02.885Z,0
2016-10-22T02:42:02.946Z,0
2016-10-22T02:43:03.002Z,0
2016-10-22T02:44:03.057Z,0
2016-10-22T02:45:03.116Z,0
2016-10-22T02:46:03.162Z,0
2016-10-22T02:47:03.535Z,0
2016-10-22T02:48:03.292Z,0
2016-10-22T02:49:03.329Z,0
2016-10-22T02:50:03.378Z,0
2016-10-22T02:51:03.425Z,0
2016-10-22T02:52:03.695Z,0
2016-10-22T02:53:03.533Z,0
2016-10-22T02:54:03.638Z,0
2016-10-22T02:55:03.661Z,0
2016-10-22T02:56:03.721Z,0
2016-10-22T02:57:03.767Z,0
2016-10-22T02:58:03.817Z,0
2016-10-22T02:59:03.873Z,0
2016-10-22T03:00:03.928Z,0
2016-10-22T03:01:03.977Z,0
2016-10-22T03:02:04.045Z,0
2016-10-22T03:03:04.114Z,0
2016-10-22T03:04:04.139Z,0
2016-10-22T03:05:04.215Z,0
2016-10-22T03:06:04.272Z,0
2016-10-22T03:07:04.315Z,0
2016-10-22T03:08:04.363Z,0
2016-10-22T03:09:04.403Z,0
2016-10-22T03:10:04.499Z,0
2016-10-22T03:11:04.544Z,0
2016-10-22T03:12:04.623Z,0
2016-10-22T03:13:04.626Z,0
2016-10-22T03:14:04.694Z,0
2016-10-22T03:15:04.749Z,0
2016-10-22T03:16:04.810Z,0
2016-10-22T03:17:04.862Z,0
2016-10-22T03:18:04.910Z,0
2016-10-22T03:19:04.973Z,0
2016-10-22T03:20:05.039Z,0
2016-10-22T03:21:05.079Z,0
2016-10-22T03:22:05.147Z,0
2016-10-22T03:23:05.196Z,0
2016-10-22T03:24:05.258Z,0
2016-10-22T03:25:05.299Z,0
2016-10-22T03:26:05.362Z,0
2016-10-22T03:27:05.421Z,0
2016-10-22T03:28:05.451Z,0
2016-10-22T03:29:05.529Z,0
2016-10-22T03:30:05.584Z,0
2016-10-22T03:31:05.619Z,0
2016-10-22T03:32:05.682Z,0
2016-10-22T03:33:05.732Z,0
2016-10-22T03:34:05.808Z,0
2016-10-22T03:35:05.832Z,0
2016-10-22T03:36:06.265Z,0
2016-10-22T03:37:05.952Z,0
2016-10-22T03:38:06.318Z,0
2016-10-22T03:39:06.051Z,0
2016-10-22T03:40:06.132Z,0
2016-10-22T03:41:06.185Z,0
2016-10-22T03:42:06.569Z,0
2016-10-22T03:43:06.617Z,0
2016-10-22T03:44:06.367Z,0
2016-10-22T03:45:06.396Z,0
2016-10-22T03:46:06.744Z,0
2016-10-22T03:47:06.523Z,0
2016-10-22T03:48:06.556Z,0
2016-10-22T03:49:06.630Z,0
2016-10-22T03:50:06.998Z,0
2016-10-22T03:51:06.734Z,0
2016-10-22T03:52:06.775Z,0
2016-10-22T03:53:06.838Z,0
2016-10-22T03:54:06.882Z,0
2016-10-22T03:55:06.947Z,0
2016-10-22T03:56:07.016Z,0
2016-10-22T03:57:07.044Z,0
2016-10-22T03:58:07.404Z,0
2016-10-22T03:59:07.157Z,0
2016-10-22T04:00:07.211Z,0
2016-10-22T04:01:07.593Z,0
2016-10-22T04:02:07.327Z,0
2016-10-22T04:03:07.364Z,0
2016-10-22T04:04:07.456Z,0
2016-10-22T04:05:07.483Z,0
2016-10-22T04:06:07.551Z,0
2016-10-22T04:07:07.598Z,0
2016-10-22T04:08:07.670Z,0
2016-10-22T04:09:07.727Z,0
2016-10-22T04:10:07.751Z,0
2016-10-22T04:11:07.822Z,0
2016-10-22T04:12:07.874Z,0
2016-10-22T04:13:07.938Z,0
2016-10-22T04:14:08.005Z,0
2016-10-22T04:15:08.036Z,0
2016-10-22T04:16:08.420Z,0
2016-10-22T04:17:08.144Z,0
2016-10-22T04:18:08.226Z,0
2016-10-22T04:19:08.264Z,0
2016-10-22T04:20:08.321Z,0
2016-10-22T04:21:08.390Z,0
2016-10-22T04:22:08.428Z,0
2016-10-22T04:23:08.500Z,0
2016-10-22T04:24:09.171Z,0
2016-10-22T04:25:08.602Z,0
2016-10-22T04:26:08.633Z,0
2016-10-22T04:27:08.712Z,0
2016-10-22T04:28:08.740Z,0
2016-10-22T04:29:08.822Z,0
2016-10-22T04:30:08.882Z,0
2016-10-22T04:31:08.942Z,0
2016-10-22T04:32:08.989Z,0
2016-10-22T04:33:09.045Z,0
2016-10-22T04:34:09.078Z,0
2016-10-22T04:35:09.123Z,0
2016-10-22T04:36:09.215Z,0
2016-10-22T04:37:09.539Z,0
2016-10-22T04:38:09.358Z,0
2016-10-22T04:39:09.365Z,0
2016-10-22T04:40:09.431Z,0
2016-10-22T04:41:09.489Z,0
2016-10-22T04:42:09.540Z,0
2016-10-22T04:43:09.595Z,0
2016-10-22T04:44:09.642Z,0
2016-10-22T04:45:09.694Z,0
2016-10-22T04:46:10.056Z,0
2016-10-22T04:47:09.799Z,0
2016-10-22T04:48:09.838Z,0
2016-10-22T04:49:09.924Z,0
2016-10-22T04:50:09.967Z,0
2016-10-22T04:51:10.082Z,0
2016-10-22T04:52:10.082Z,0
2016-10-22T04:53:10.151Z,0
2016-10-22T04:54:10.200Z,0
2016-10-22T04:55:10.231Z,0
2016-10-22T04:56:10.280Z,0
2016-10-22T04:57:10.346Z,0
2016-10-22T04:58:10.755Z,0
2016-10-22T04:59:10.471Z,0
2016-10-22T05:00:10.511Z,0
2016-10-22T05:01:10.584Z,0
2016-10-22T05:02:10.628Z,0
2016-10-22T05:03:10.673Z,0
2016-10-22T05:04:10.771Z,0
2016-10-22T05:05:10.810Z,0
2016-10-22T05:06:10.844Z,0
2016-10-22T05:07:10.908Z,0
2016-10-22T05:08:10.962Z,0
2016-10-22T05:09:11.012Z,0
2016-10-22T05:10:11.087Z,0
2016-10-22T05:11:11.128Z,0
2016-10-22T05:12:11.176Z,0
2016-10-22T05:13:11.254Z,0
2016-10-22T05:14:11.270Z,0
2016-10-22T05:15:11.328Z,0
2016-10-22T05:16:11.406Z,0
2016-10-22T05:17:11.437Z,0
2016-10-22T05:18:11.547Z,0
2016-10-22T05:19:11.897Z,0
2016-10-22T05:20:11.615Z,0
2016-10-22T05:21:11.691Z,0
2016-10-22T05:22:11.942Z,4
2016-10-22T05:23:11.803Z,4
2016-10-22T05:24:11.852Z,0
2016-10-22T05:25:11.893Z,0
2016-10-22T05:26:11.958Z,4
2016-10-22T05:27:12.008Z,4
2016-10-22T05:28:12.073Z,4
2016-10-22T05:29:12.125Z,4
2016-10-22T05:30:12.151Z,8
2016-10-22T05:31:12.223Z,4
2016-10-22T05:32:12.277Z,8
2016-10-22T05:33:12.336Z,8
2016-10-22T05:34:12.383Z,12
2016-10-22T05:35:12.449Z,12
2016-10-22T05:36:12.499Z,16
2016-10-22T05:37:12.554Z,16
2016-10-22T05:38:12.643Z,20
2016-10-22T05:39:12.683Z,20
2016-10-22T05:40:13.022Z,24
2016-10-22T05:41:12.753Z,28
2016-10-22T05:42:12.878Z,32
2016-10-22T05:43:12.886Z,36
2016-10-22T05:44:12.924Z,40
2016-10-22T05:45:12.995Z,44
2016-10-22T05:46:13.037Z,48
2016-10-22T05:47:13.092Z,56
2016-10-22T05:48:13.164Z,68
2016-10-22T05:49:13.207Z,80
2016-10-22T05:50:13.265Z,92
2016-10-22T05:51:13.305Z,104
2016-10-22T05:52:13.390Z,120
2016-10-22T05:53:13.447Z,132
2016-10-22T05:54:13.492Z,144
2016-10-22T05:55:13.542Z,160
2016-10-22T05:56:13.592Z,176
2016-10-22T05:57:13.634Z,196
2016-10-22T05:58:13.709Z,216
2016-10-22T05:59:13.764Z,236
2016-10-22T06:00:13.813Z,256
2016-10-22T06:01:13.854Z,272
2016-10-22T06:02:14.231Z,296
2016-10-22T06:03:13.972Z,316
2016-10-22T06:04:14.048Z,340
2016-10-22T06:05:14.105Z,360
2016-10-22T06:06:14.159Z,384
2016-10-22T06:07:14.203Z,412
2016-10-22T06:08:14.241Z,432
2016-10-22T06:09:14.299Z,456
2016-10-22T06:10:14.386Z,476
2016-10-22T06:11:14.447Z,500
2016-10-22T06:12:14.496Z,524
2016-10-22T06:13:14.522Z,540
2016-10-22T06:14:14.589Z,564
2016-10-22T06:15:14.638Z,568
2016-10-22T06:16:14.697Z,588
2016-10-22T06:17:14.768Z,624
2016-10-22T06:18:14.816Z,644
2016-10-22T06:19:14.859Z,664
2016-10-22T06:20:14.928Z,676
2016-10-22T06:21:15.269Z,692
2016-10-22T06:22:15.032Z,692
2016-10-22T06:23:15.086Z,688
2016-10-22T06:24:15.152Z,728
2016-10-22T06:25:15.213Z,772
2016-10-22T06:26:15.227Z,800
2016-10-22T06:27:15.299Z,820
2016-10-22T06:28:15.376Z,836
2016-10-22T06:29:15.409Z,852
2016-10-22T06:30:15.470Z,876
2016-10-22T06:31:15.518Z,900
2016-10-22T06:32:15.560Z,912
2016-10-22T06:33:15.663Z,932
2016-10-22T06:34:15.699Z,952
2016-10-22T06:35:15.726Z,968
2016-10-22T06:36:15.786Z,988
2016-10-22T06:37:15.856Z,1004
2016-10-22T06:38:15.912Z,1024
2016-10-22T06:39:15.959Z,1040
2016-10-22T06:40:16.022Z,1060
2016-10-22T06:41:16.068Z,1072
2016-10-22T06:42:16.148Z,1088
2016-10-22T06:43:16.168Z,1104
2016-10-22T06:44:16.249Z,1120
2016-10-22T06:45:16.412Z,1136
2016-10-22T06:46:16.349Z,1152
2016-10-22T06:47:16.403Z,1168
2016-10-22T06:48:16.457Z,1180
2016-10-22T06:49:16.518Z,1196
2016-10-22T06:50:16.572Z,1220
2016-10-22T06:51:16.615Z,1236
2016-10-22T06:52:16.688Z,1248
2016-10-22T06:53:16.738Z,1264
2016-10-22T06:54:16.782Z,1276
2016-10-22T06:55:16.841Z,1300
2016-10-22T06:56:16.891Z,1308
2016-10-22T06:57:16.943Z,1324
2016-10-22T06:58:17.010Z,1348
2016-10-22T06:59:17.052Z,1364
2016-10-22T07:00:17.109Z,1380
2016-10-22T07:01:17.183Z,1396
2016-10-22T07:02:17.233Z,1416
2016-10-22T07:03:17.288Z,1432
2016-10-22T07:04:17.360Z,1452
2016-10-22T07:05:17.395Z,1468
2016-10-22T07:06:17.448Z,1476
2016-10-22T07:07:17.490Z,1508
2016-10-22T07:08:17.561Z,1516
2016-10-22T07:09:17.649Z,1528
2016-10-22T07:10:17.711Z,1544
2016-10-22T07:11:17.727Z,1556
2016-10-22T07:12:17.782Z,1572
2016-10-22T07:13:17.837Z,1584
2016-10-22T07:14:17.899Z,1604
2016-10-22T07:15:17.942Z,1604
2016-10-22T07:16:18.013Z,1600
2016-10-22T07:17:18.069Z,1596
2016-10-22T07:18:18.124Z,1600
2016-10-22T07:19:18.179Z,1600
2016-10-22T07:20:18.213Z,1608
2016-10-22T07:21:18.339Z,1608
2016-10-22T07:22:18.324Z,1616
2016-10-22T07:23:18.404Z,1620
2016-10-22T07:24:18.453Z,1624
2016-10-22T07:25:18.518Z,1632
2016-10-22T07:26:18.560Z,1636
2016-10-22T07:27:18.598Z,1640
2016-10-22T07:28:18.655Z,1648
2016-10-22T07:29:18.763Z,1660
2016-10-22T07:30:18.799Z,1680
2016-10-22T07:31:18.844Z,1700
2016-10-22T07:32:18.880Z,1712
2016-10-22T07:33:18.961Z,1720
2016-10-22T07:34:19.015Z,1736
2016-10-22T07:35:19.056Z,1748
2016-10-22T07:36:19.101Z,1756
2016-10-22T07:37:19.178Z,1756
2016-10-22T07:38:19.243Z,1764
2016-10-22T07:39:19.270Z,1760
2016-10-22T07:40:19.326Z,1760
2016-10-22T07:41:19.400Z,1764
2016-10-22T07:42:19.436Z,1764
2016-10-22T07:43:19.506Z,1768
2016-10-22T07:44:19.574Z,1772
2016-10-22T07:45:19.614Z,1780
2016-10-22T07:46:19.683Z,1796
2016-10-22T07:47:19.740Z,1804
2016-10-22T07:48:20.110Z,1816
2016-10-22T07:49:19.837Z,1828
2016-10-22T07:50:19.903Z,1840
2016-10-22T07:51:19.933Z,1852
2016-10-22T07:52:19.989Z,1860
2016-10-22T07:53:20.060Z,1868
2016-10-22T07:54:20.113Z,1872
2016-10-22T07:55:20.187Z,1880
2016-10-22T07:56:20.248Z,1892
2016-10-22T07:57:20.281Z,1900
2016-10-22T07:58:20.361Z,1908
2016-10-22T07:59:20.377Z,1916
2016-10-22T08:00:20.456Z,1928
2016-10-22T08:01:20.529Z,1940
2016-10-22T08:02:20.562Z,1948
2016-10-22T08:03:20.635Z,1956
2016-10-22T08:04:20.657Z,1972
2016-10-22T08:05:20.746Z,1984
2016-10-22T08:06:20.796Z,1992
2016-10-22T08:07:20.831Z,2000
2016-10-22T08:08:20.888Z,2008
2016-10-22T08:09:20.997Z,2004
2016-10-22T08:10:21.041Z,2000
2016-10-22T08:11:21.060Z,1992
2016-10-22T08:12:21.139Z,1980
2016-10-22T08:13:21.197Z,1968
2016-10-22T08:14:21.235Z,1956
2016-10-22T08:15:21.286Z,1952
2016-10-22T08:16:21.346Z,1952
2016-10-22T08:17:21.417Z,1952
2016-10-22T08:18:21.444Z,1952
2016-10-22T08:19:21.518Z,1952
2016-10-22T08:20:21.568Z,1944
2016-10-22T08:21:21.630Z,1936
2016-10-22T08:22:21.698Z,1920
2016-10-22T08:23:21.742Z,1916
2016-10-22T08:24:21.786Z,1920
2016-10-22T08:25:21.832Z,1920
2016-10-22T08:26:21.908Z,1924
2016-10-22T08:27:21.961Z,1936
2016-10-22T08:28:22.000Z,1940
2016-10-22T08:29:22.080Z,1948
2016-10-22T08:30:22.109Z,1956
2016-10-22T08:31:22.193Z,1956
2016-10-22T08:32:22.224Z,1952
2016-10-22T08:33:22.307Z,1952
2016-10-22T08:34:22.349Z,1948
2016-10-22T08:35:22.396Z,1948
2016-10-22T08:36:22.462Z,1948
2016-10-22T08:37:22.534Z,1952
2016-10-22T08:38:22.584Z,1952
2016-10-22T08:39:22.639Z,1952
2016-10-22T08:40:22.703Z,1948
2016-10-22T08:41:22.735Z,1940
2016-10-22T08:42:22.794Z,1944
2016-10-22T08:43:22.857Z,1940
2016-10-22T08:44:22.910Z,1940
2016-10-22T08:45:22.956Z,1948
2016-10-22T08:46:23.042Z,1948
2016-10-22T08:47:23.078Z,1944
2016-10-22T08:48:23.150Z,1944
2016-10-22T08:49:23.174Z,1948
2016-10-22T08:50:23.248Z,1948
2016-10-22T08:51:23.311Z,1956
2016-10-22T08:52:23.355Z,1948
2016-10-22T08:53:23.395Z,1952
2016-10-22T08:54:23.479Z,1952
2016-10-22T08:55:23.508Z,1956
2016-10-22T08:56:23.576Z,1956
2016-10-22T08:57:23.639Z,1956
2016-10-22T08:58:23.685Z,1968
2016-10-22T08:59:23.749Z,1952
2016-10-22T09:00:23.808Z,1956
2016-10-22T09:01:23.864Z,1952
2016-10-22T09:02:23.926Z,1944
2016-10-22T09:03:23.980Z,1944
2016-10-22T09:04:24.004Z,1948
2016-10-22T09:05:24.087Z,1948
2016-10-22T09:06:24.139Z,1948
2016-10-22T09:07:24.188Z,1948
2016-10-22T09:08:24.234Z,1952
2016-10-22T09:09:24.337Z,1960
2016-10-22T09:10:24.359Z,1964
2016-10-22T09:11:24.453Z,1976
2016-10-22T09:12:24.475Z,1980
2016-10-22T09:13:24.528Z,1980
2016-10-22T09:14:24.583Z,1992
2016-10-22T09:15:24.629Z,2000
2016-10-22T09:16:24.706Z,2004
2016-10-22T09:17:24.748Z,2004
2016-10-22T09:18:24.816Z,2008
2016-10-22T09:19:24.891Z,2012
2016-10-22T09:20:24.918Z,2016
2016-10-22T09:21:24.963Z,2024
2016-10-22T09:22:25.039Z,2028
2016-10-22T09:23:25.079Z,2032
2016-10-22T09:24:25.153Z,2044
2016-10-22T09:25:25.173Z,2048
2016-10-22T09:26:25.263Z,2052
2016-10-22T09:27:25.322Z,2064
2016-10-22T09:28:25.352Z,2068
2016-10-22T09:29:25.413Z,2076
2016-10-22T09:30:25.449Z,2092
2016-10-22T09:31:25.520Z,2100
2016-10-22T09:32:25.592Z,2104
2016-10-22T09:33:25.632Z,2112
2016-10-22T09:34:25.672Z,2128
2016-10-22T09:35:25.742Z,2136
2016-10-22T09:36:25.788Z,2148
2016-10-22T09:37:25.851Z,2160
2016-10-22T09:38:26.249Z,2176
2016-10-22T09:39:25.985Z,2184
2016-10-22T09:40:26.012Z,2196
2016-10-22T09:41:26.075Z,2388
2016-10-22T09:42:26.144Z,2220
2016-10-22T09:43:26.170Z,2236
2016-10-22T09:44:26.267Z,2252
2016-10-22T09:45:26.293Z,2268
2016-10-22T09:46:26.355Z,2280
2016-10-22T09:47:26.418Z,2288
2016-10-22T09:48:26.458Z,2296
2016-10-22T09:49:26.507Z,2312
2016-10-22T09:50:26.563Z,2324
2016-10-22T09:51:26.613Z,2336
2016-10-22T09:52:26.688Z,2348
2016-10-22T09:53:26.736Z,2356
2016-10-22T09:54:26.789Z,2364
2016-10-22T09:55:26.831Z,2376
2016-10-22T09:56:26.901Z,2388
2016-10-22T09:57:26.958Z,2400
2016-10-22T09:58:27.020Z,2416
2016-10-22T09:59:27.075Z,2424
2016-10-22T10:00:27.128Z,2444
2016-10-22T10:01:27.198Z,2456
2016-10-22T10:02:27.250Z,2464
2016-10-22T10:03:27.305Z,2476
2016-10-22T10:04:27.344Z,2492
2016-10-22T10:05:27.388Z,2508
2016-10-22T10:06:27.459Z,2520
2016-10-22T10:07:27.511Z,2536
2016-10-22T10:08:27.587Z,2556
2016-10-22T10:09:27.624Z,2572
2016-10-22T10:10:27.683Z,2592
2016-10-22T10:11:27.740Z,2612
2016-10-22T10:12:27.807Z,2632
2016-10-22T10:13:27.868Z,2652
2016-10-22T10:14:27.887Z,2672
2016-10-22T10:15:27.964Z,2700
2016-10-22T10:16:28.025Z,2728
2016-10-22T10:17:28.067Z,2740
2016-10-22T10:18:28.118Z,2760
2016-10-22T10:19:28.178Z,2784
2016-10-22T10:20:28.230Z,2804
2016-10-22T10:21:28.291Z,2828
2016-10-22T10:22:28.352Z,2856
2016-10-22T10:23:28.403Z,2876
2016-10-22T10:24:28.458Z,2904
2016-10-22T10:25:28.527Z,2944
2016-10-22T10:26:29.308Z,2976
2016-10-22T10:27:28.644Z,3004
2016-10-22T10:28:28.668Z,3032
2016-10-22T10:29:28.734Z,3056
2016-10-22T10:30:28.815Z,3088
2016-10-22T10:31:28.847Z,3136
2016-10-22T10:32:28.914Z,3164
2016-10-22T10:33:28.945Z,3192
2016-10-22T10:34:29.020Z,3232
2016-10-22T10:35:29.071Z,3264
2016-10-22T10:36:29.143Z,3296
2016-10-22T10:37:29.222Z,3332
2016-10-22T10:38:29.229Z,3376
2016-10-22T10:39:29.291Z,3412
2016-10-22T10:40:29.647Z,3464
2016-10-22T10:41:29.423Z,3544
2016-10-22T10:42:29.453Z,3624
2016-10-22T10:43:29.501Z,3720
2016-10-22T10:44:29.585Z,3868
2016-10-22T10:45:29.634Z,4132
2016-10-22T10:46:29.679Z,4536
2016-10-22T10:47:29.726Z,4988
2016-10-22T10:48:29.788Z,5392
2016-10-22T10:49:29.872Z,5976
2016-10-22T10:50:29.904Z,6560
2016-10-22T10:51:29.982Z,7224
2016-10-22T10:52:30.036Z,8460
2016-10-22T10:53:30.084Z,26976
2016-10-22T10:54:30.119Z,50048
2016-10-22T10:55:30.191Z,54656
2016-10-22T10:56:30.260Z,51136
2016-10-22T10:57:30.296Z,48224
2016-10-22T10:58:30.343Z,60832
2016-10-22T10:59:30.424Z,64416
2016-10-22T11:00:30.455Z,62368
2016-10-22T11:01:30.519Z,63712
2016-10-22T11:02:30.563Z,66112
2016-10-22T11:03:30.640Z,71808
2016-10-22T11:04:30.684Z,67200
2016-10-22T11:05:30.736Z,66976
2016-10-22T11:06:30.797Z,67904
2016-10-22T11:07:30.869Z,66976
2016-10-22T11:08:30.923Z,69408
2016-10-22T11:09:30.987Z,69824
2016-10-22T11:10:31.025Z,69152
2016-10-22T11:11:31.086Z,68160
2016-10-22T11:12:31.148Z,69024
2016-10-22T11:13:31.188Z,63616
2016-10-22T11:14:31.267Z,65760
2016-10-22T11:15:31.296Z,64384
2016-10-22T11:16:31.384Z,63648
2016-10-22T11:17:31.399Z,67840
2016-10-22T11:18:31.464Z,62592
2016-10-22T11:19:31.521Z,63520
2016-10-22T11:20:31.655Z,69088
2016-10-22T11:21:31.638Z,70560
2016-10-22T11:22:31.731Z,72864
2016-10-22T11:23:31.756Z,70848
2016-10-22T11:24:31.818Z,72768
2016-10-22T11:25:32.064Z,73376
2016-10-22T11:26:31.945Z,67744
2016-10-22T11:27:31.993Z,63680
2016-10-22T11:28:32.054Z,67168
2016-10-22T11:29:32.094Z,67360
2016-10-22T11:30:32.160Z,68576
2016-10-22T11:31:32.854Z,71936
2016-10-22T11:32:32.257Z,72736
2016-10-22T11:33:32.328Z,73920
2016-10-22T11:34:32.711Z,62400
2016-10-22T11:35:32.437Z,72800
2016-10-22T11:36:32.489Z,70528
2016-10-22T11:37:32.536Z,68960
2016-10-22T11:38:32.587Z,66976
2016-10-22T11:39:32.639Z,69344
2016-10-22T11:40:32.707Z,71424
2016-10-22T11:41:32.752Z,70624
2016-10-22T11:42:32.822Z,68832
2016-10-22T11:43:32.887Z,69216
2016-10-22T11:44:32.946Z,68096
2016-10-22T11:45:33.011Z,65984
2016-10-22T11:46:33.049Z,63936
2016-10-22T11:47:33.086Z,63104
2016-10-22T11:48:33.170Z,60704
2016-10-22T11:49:33.219Z,65376
2016-10-22T11:50:33.285Z,68224
2016-10-22T11:51:33.326Z,69600
2016-10-22T11:52:33.380Z,73920
2016-10-22T11:53:33.443Z,75488
2016-10-22T11:54:33.510Z,75808
2016-10-22T11:55:33.547Z,77344
2016-10-22T11:56:33.601Z,76512
2016-10-22T11:57:33.652Z,75552
2016-10-22T11:58:33.722Z,79392
2016-10-22T11:59:33.776Z,81056
2016-10-22T12:00:33.842Z,82944
2016-10-22T12:01:33.907Z,83296
2016-10-22T12:02:33.950Z,82944
2016-10-22T12:03:33.991Z,84352
2016-10-22T12:04:34.080Z,85024
2016-10-22T12:05:34.126Z,84672
2016-10-22T12:06:34.174Z,86112
2016-10-22T12:07:34.226Z,82624
2016-10-22T12:08:34.298Z,81760
2016-10-22T12:09:34.352Z,82976
2016-10-22T12:10:34.407Z,85344
2016-10-22T12:11:34.466Z,82912
2016-10-22T12:12:34.502Z,78592
2016-10-22T12:13:34.579Z,78944
2016-10-22T12:14:34.636Z,82016
2016-10-22T12:15:34.692Z,81760
2016-10-22T12:16:35.041Z,77568
2016-10-22T12:17:34.810Z,76576
2016-10-22T12:18:34.846Z,82400
2016-10-22T12:19:34.929Z,80992
2016-10-22T12:20:34.969Z,80800
2016-10-22T12:21:35.028Z,78336
2016-10-22T12:22:35.130Z,81216
2016-10-22T12:23:35.127Z,82336
2016-10-22T12:24:35.214Z,82496
2016-10-22T12:25:35.253Z,78336
2016-10-22T12:26:35.312Z,79744
2016-10-22T12:27:35.370Z,81120
2016-10-22T12:28:35.420Z,78720
2016-10-22T12:29:35.459Z,78368
2016-10-22T12:30:35.532Z,83232
2016-10-22T12:31:35.592Z,85504
2016-10-22T12:32:35.650Z,82592
2016-10-22T12:33:35.705Z,84480
2016-10-22T12:34:35.771Z,84640
2016-10-22T12:35:35.824Z,82144
2016-10-22T12:36:35.896Z,80608
2016-10-22T12:37:35.940Z,81120
2016-10-22T12:38:36.016Z,80160
2016-10-22T12:39:36.074Z,79584
2016-10-22T12:40:36.121Z,81504
2016-10-22T12:41:36.154Z,79904
2016-10-22T12:42:36.221Z,77984
2016-10-22T12:43:36.278Z,80544
2016-10-22T12:44:36.317Z,78432
2016-10-22T12:45:36.404Z,74944
2016-10-22T12:46:36.434Z,74336
2016-10-22T12:47:36.507Z,77792
2016-10-22T12:48:36.576Z,78528
2016-10-22T12:49:36.641Z,80768
2016-10-22T12:50:36.667Z,81408
2016-10-22T12:51:36.747Z,75456
2016-10-22T12:52:36.808Z,76160
2016-10-22T12:53:36.843Z,78976
2016-10-22T12:54:36.881Z,78880
2016-10-22T12:55:36.965Z,79200
2016-10-22T12:56:37.023Z,80640
2016-10-22T12:57:37.068Z,79040
2016-10-22T12:58:37.125Z,76768
2016-10-22T12:59:37.166Z,76640
2016-10-22T13:00:37.261Z,79424
2016-10-22T13:01:37.304Z,78656
2016-10-22T13:02:37.389Z,78304
2016-10-22T13:03:37.420Z,77696
2016-10-22T13:04:37.459Z,76288
2016-10-22T13:05:37.530Z,74080
2016-10-22T13:06:37.567Z,71936
2016-10-22T13:07:37.660Z,74144
2016-10-22T13:08:37.694Z,74144
2016-10-22T13:09:37.777Z,72640
2016-10-22T13:10:37.812Z,6916
2016-10-22T13:11:37.865Z,74176
2016-10-22T13:12:37.945Z,74048
2016-10-22T13:13:37.980Z,78080
2016-10-22T13:14:38.089Z,77984
2016-10-22T13:15:38.114Z,73504
2016-10-22T13:16:38.157Z,75488
2016-10-22T13:17:38.221Z,72160
2016-10-22T13:18:38.292Z,44512
2016-10-22T13:19:38.343Z,16516
2016-10-22T13:20:38.368Z,8828
2016-10-22T13:21:38.425Z,6340
2016-10-22T13:22:38.496Z,5108
2016-10-22T13:23:38.558Z,4072
2016-10-22T13:24:38.595Z,3376
2016-10-22T13:25:38.664Z,2968
2016-10-22T13:26:38.735Z,2904
2016-10-22T13:27:38.767Z,2628
2016-10-22T13:28:38.823Z,2452
2016-10-22T13:29:38.913Z,2360
2016-10-22T13:30:38.943Z,2348
2016-10-22T13:31:39.002Z,2364
2016-10-22T13:32:39.056Z,2332
2016-10-22T13:33:39.125Z,2292
2016-10-22T13:34:39.176Z,2248
2016-10-22T13:35:39.244Z,2144
2016-10-22T13:36:39.314Z,2080
2016-10-22T13:37:39.339Z,2060
2016-10-22T13:38:39.403Z,2096
2016-10-22T13:39:39.469Z,2192
2016-10-22T13:40:39.526Z,2204
2016-10-22T13:41:39.576Z,2220
2016-10-22T13:42:39.640Z,2152
2016-10-22T13:43:39.699Z,2044
2016-10-22T13:44:39.744Z,1960
2016-10-22T13:45:39.806Z,1924
2016-10-22T13:46:39.879Z,1860
2016-10-22T13:47:39.929Z,1728
2016-10-22T13:48:39.984Z,1824
2016-10-22T13:49:40.033Z,1776
2016-10-22T13:50:40.074Z,1764